sensor_id;sensor_type;location;lat;lon;timestamp;P1;durP1;ratioP1;P2;durP2;ratioP2
9520;SDS011;4798;41.574;23.734;2024-01-06T00:01:48;4.00;;;3.00;;
9520;SDS011;4798;41.574;23.734;2024-01-06T00:04:17;4.43;;;3.93;;
9520;SDS011;4798;41.574;23.734;2024-01-06T00:06:47;3.30;;;3.10;;
9520;SDS011;4798;41.574;23.734;2024-01-06T00:09:16;7.97;;;2.30;;
9520;SDS011;4798;41.574;23.734;2024-01-06T00:11:44;1.53;;;1.10;;
9520;SDS011;4798;41.574;23.734;2024-01-06T00:14:13;5.13;;;1.83;;
9520;SDS011;4798;41.574;23.734;2024-01-06T00:16:41;1.83;;;1.73;;
9520;SDS011;4798;41.574;23.734;2024-01-06T00:19:10;2.37;;;2.23;;
9520;SDS011;4798;41.574;23.734;2024-01-06T00:21:39;3.50;;;2.30;;
9520;SDS011;4798;41.574;23.734;2024-01-06T00:24:09;5.23;;;1.90;;
9520;SDS011;4798;41.574;23.734;2024-01-06T00:26:38;2.37;;;1.23;;
9520;SDS011;4798;41.574;23.734;2024-01-06T00:29:06;2.23;;;1.83;;
9520;SDS011;4798;41.574;23.734;2024-01-06T00:31:35;3.00;;;2.90;;
9520;SDS011;4798;41.574;23.734;2024-01-06T00:34:04;2.53;;;2.20;;
9520;SDS011;4798;41.574;23.734;2024-01-06T00:36:33;5.80;;;2.50;;
9520;SDS011;4798;41.574;23.734;2024-01-06T00:39:01;4.43;;;4.13;;
9520;SDS011;4798;41.574;23.734;2024-01-06T00:41:31;6.93;;;3.67;;
9520;SDS011;4798;41.574;23.734;2024-01-06T00:44:00;3.93;;;3.20;;
9520;SDS011;4798;41.574;23.734;2024-01-06T00:46:29;3.50;;;3.37;;
9520;SDS011;4798;41.574;23.734;2024-01-06T00:48:57;7.60;;;3.30;;
9520;SDS011;4798;41.574;23.734;2024-01-06T00:51:26;3.23;;;1.87;;
9520;SDS011;4798;41.574;23.734;2024-01-06T00:53:56;3.23;;;2.70;;
9520;SDS011;4798;41.574;23.734;2024-01-06T00:56:24;1.97;;;1.87;;
9520;SDS011;4798;41.574;23.734;2024-01-06T00:58:55;2.60;;;2.40;;
9520;SDS011;4798;41.574;23.734;2024-01-06T01:01:24;6.10;;;2.87;;
9520;SDS011;4798;41.574;23.734;2024-01-06T01:03:52;3.73;;;2.60;;
9520;SDS011;4798;41.574;23.734;2024-01-06T01:06:21;2.40;;;1.73;;
9520;SDS011;4798;41.574;23.734;2024-01-06T01:08:50;2.67;;;2.50;;
9520;SDS011;4798;41.574;23.734;2024-01-06T01:11:18;2.00;;;1.90;;
9520;SDS011;4798;41.574;23.734;2024-01-06T01:13:47;2.07;;;1.97;;
9520;SDS011;4798;41.574;23.734;2024-01-06T01:16:17;5.97;;;3.13;;
9520;SDS011;4798;41.574;23.734;2024-01-06T01:18:46;7.23;;;3.43;;
9520;SDS011;4798;41.574;23.734;2024-01-06T01:21:15;2.70;;;1.83;;
9520;SDS011;4798;41.574;23.734;2024-01-06T01:23:44;4.60;;;4.13;;
9520;SDS011;4798;41.574;23.734;2024-01-06T01:26:12;3.23;;;3.13;;
9520;SDS011;4798;41.574;23.734;2024-01-06T01:28:41;4.53;;;2.47;;
9520;SDS011;4798;41.574;23.734;2024-01-06T01:31:09;7.90;;;3.80;;
9520;SDS011;4798;41.574;23.734;2024-01-06T01:33:40;8.37;;;3.50;;
9520;SDS011;4798;41.574;23.734;2024-01-06T01:36:09;5.53;;;2.20;;
9520;SDS011;4798;41.574;23.734;2024-01-06T01:38:38;3.23;;;3.03;;
9520;SDS011;4798;41.574;23.734;2024-01-06T01:41:06;5.23;;;4.27;;
9520;SDS011;4798;41.574;23.734;2024-01-06T01:43:35;3.77;;;3.13;;
9520;SDS011;4798;41.574;23.734;2024-01-06T01:46:05;2.90;;;2.60;;
9520;SDS011;4798;41.574;23.734;2024-01-06T01:48:34;4.47;;;4.30;;
9520;SDS011;4798;41.574;23.734;2024-01-06T01:51:04;4.80;;;3.53;;
9520;SDS011;4798;41.574;23.734;2024-01-06T01:53:35;2.90;;;2.70;;
9520;SDS011;4798;41.574;23.734;2024-01-06T01:56:05;3.57;;;3.00;;
9520;SDS011;4798;41.574;23.734;2024-01-06T01:58:35;2.10;;;2.00;;
9520;SDS011;4798;41.574;23.734;2024-01-06T02:01:04;4.40;;;2.90;;
9520;SDS011;4798;41.574;23.734;2024-01-06T02:03:33;2.60;;;2.37;;
9520;SDS011;4798;41.574;23.734;2024-01-06T02:06:03;2.87;;;2.63;;
9520;SDS011;4798;41.574;23.734;2024-01-06T02:08:33;1.30;;;1.30;;
9520;SDS011;4798;41.574;23.734;2024-01-06T02:11:01;2.63;;;2.47;;
9520;SDS011;4798;41.574;23.734;2024-01-06T02:13:34;2.57;;;2.03;;
9520;SDS011;4798;41.574;23.734;2024-01-06T02:16:03;2.80;;;2.70;;
9520;SDS011;4798;41.574;23.734;2024-01-06T02:18:33;2.20;;;2.10;;
9520;SDS011;4798;41.574;23.734;2024-01-06T02:21:02;5.83;;;1.60;;
9520;SDS011;4798;41.574;23.734;2024-01-06T02:23:34;4.07;;;3.73;;
9520;SDS011;4798;41.574;23.734;2024-01-06T02:26:04;3.93;;;2.63;;
9520;SDS011;4798;41.574;23.734;2024-01-06T02:28:32;10.23;;;1.90;;
9520;SDS011;4798;41.574;23.734;2024-01-06T02:31:01;4.37;;;3.87;;
9520;SDS011;4798;41.574;23.734;2024-01-06T02:33:30;9.50;;;3.40;;
9520;SDS011;4798;41.574;23.734;2024-01-06T02:35:58;4.23;;;3.83;;
9520;SDS011;4798;41.574;23.734;2024-01-06T02:38:27;4.00;;;3.70;;
9520;SDS011;4798;41.574;23.734;2024-01-06T02:40:57;3.13;;;2.93;;
9520;SDS011;4798;41.574;23.734;2024-01-06T02:43:26;4.60;;;4.30;;
9520;SDS011;4798;41.574;23.734;2024-01-06T02:45:54;3.63;;;2.73;;
9520;SDS011;4798;41.574;23.734;2024-01-06T02:48:23;4.77;;;3.13;;
9520;SDS011;4798;41.574;23.734;2024-01-06T02:50:51;3.73;;;3.43;;
9520;SDS011;4798;41.574;23.734;2024-01-06T02:53:20;3.53;;;2.30;;
9520;SDS011;4798;41.574;23.734;2024-01-06T02:55:49;4.63;;;3.40;;
9520;SDS011;4798;41.574;23.734;2024-01-06T02:58:19;2.73;;;2.50;;
9520;SDS011;4798;41.574;23.734;2024-01-06T03:00:48;2.83;;;2.57;;
9520;SDS011;4798;41.574;23.734;2024-01-06T03:03:16;4.50;;;4.03;;
9520;SDS011;4798;41.574;23.734;2024-01-06T03:05:45;2.97;;;2.20;;
9520;SDS011;4798;41.574;23.734;2024-01-06T03:08:16;6.83;;;3.03;;
9520;SDS011;4798;41.574;23.734;2024-01-06T03:10:44;2.53;;;2.33;;
9520;SDS011;4798;41.574;23.734;2024-01-06T03:13:13;7.23;;;3.73;;
9520;SDS011;4798;41.574;23.734;2024-01-06T03:15:43;2.80;;;2.60;;
9520;SDS011;4798;41.574;23.734;2024-01-06T03:18:12;3.00;;;2.80;;
9520;SDS011;4798;41.574;23.734;2024-01-06T03:20:41;11.13;;;3.50;;
9520;SDS011;4798;41.574;23.734;2024-01-06T03:23:10;5.83;;;3.70;;
9520;SDS011;4798;41.574;23.734;2024-01-06T03:25:38;3.33;;;2.40;;
9520;SDS011;4798;41.574;23.734;2024-01-06T03:28:07;1.30;;;1.20;;
9520;SDS011;4798;41.574;23.734;2024-01-06T03:30:35;2.23;;;2.03;;
9520;SDS011;4798;41.574;23.734;2024-01-06T03:33:05;2.43;;;2.30;;
9520;SDS011;4798;41.574;23.734;2024-01-06T03:35:34;3.83;;;3.23;;
9520;SDS011;4798;41.574;23.734;2024-01-06T03:38:03;1.50;;;1.40;;
9520;SDS011;4798;41.574;23.734;2024-01-06T03:40:32;3.47;;;3.17;;
9520;SDS011;4798;41.574;23.734;2024-01-06T03:43:00;2.37;;;2.27;;
9520;SDS011;4798;41.574;23.734;2024-01-06T03:45:29;7.77;;;4.30;;
9520;SDS011;4798;41.574;23.734;2024-01-06T03:47:57;2.57;;;2.47;;
9520;SDS011;4798;41.574;23.734;2024-01-06T03:50:28;2.57;;;2.40;;
9520;SDS011;4798;41.574;23.734;2024-01-06T03:52:56;3.20;;;3.10;;
9520;SDS011;4798;41.574;23.734;2024-01-06T03:55:25;3.63;;;3.40;;
9520;SDS011;4798;41.574;23.734;2024-01-06T03:57:53;3.03;;;2.93;;
9520;SDS011;4798;41.574;23.734;2024-01-06T04:00:22;3.57;;;3.27;;
9520;SDS011;4798;41.574;23.734;2024-01-06T04:02:53;4.23;;;2.40;;
9520;SDS011;4798;41.574;23.734;2024-01-06T04:05:22;3.80;;;3.60;;
9520;SDS011;4798;41.574;23.734;2024-01-06T04:07:52;2.70;;;2.50;;
9520;SDS011;4798;41.574;23.734;2024-01-06T04:10:20;2.97;;;2.87;;
9520;SDS011;4798;41.574;23.734;2024-01-06T04:12:49;5.57;;;3.37;;
9520;SDS011;4798;41.574;23.734;2024-01-06T04:15:18;7.10;;;2.77;;
9520;SDS011;4798;41.574;23.734;2024-01-06T04:17:47;4.53;;;4.23;;
9520;SDS011;4798;41.574;23.734;2024-01-06T04:20:16;2.87;;;2.63;;
9520;SDS011;4798;41.574;23.734;2024-01-06T04:22:45;2.47;;;2.37;;
9520;SDS011;4798;41.574;23.734;2024-01-06T04:25:15;3.40;;;3.10;;
9520;SDS011;4798;41.574;23.734;2024-01-06T04:27:44;20.93;;;2.23;;
9520;SDS011;4798;41.574;23.734;2024-01-06T04:30:13;2.23;;;2.13;;
9520;SDS011;4798;41.574;23.734;2024-01-06T04:32:42;1.77;;;1.67;;
9520;SDS011;4798;41.574;23.734;2024-01-06T04:35:11;7.50;;;2.10;;
9520;SDS011;4798;41.574;23.734;2024-01-06T04:37:40;2.83;;;2.63;;
9520;SDS011;4798;41.574;23.734;2024-01-06T04:40:09;5.77;;;4.10;;
9520;SDS011;4798;41.574;23.734;2024-01-06T04:42:40;2.87;;;2.67;;
9520;SDS011;4798;41.574;23.734;2024-01-06T04:45:08;3.70;;;3.43;;
9520;SDS011;4798;41.574;23.734;2024-01-06T04:47:37;3.37;;;3.17;;
9520;SDS011;4798;41.574;23.734;2024-01-06T04:50:06;7.67;;;3.33;;
9520;SDS011;4798;41.574;23.734;2024-01-06T04:52:35;2.77;;;2.67;;
9520;SDS011;4798;41.574;23.734;2024-01-06T04:55:04;4.10;;;3.80;;
9520;SDS011;4798;41.574;23.734;2024-01-06T04:57:33;2.80;;;2.60;;
9520;SDS011;4798;41.574;23.734;2024-01-06T05:00:04;2.23;;;2.13;;
9520;SDS011;4798;41.574;23.734;2024-01-06T05:02:33;6.87;;;4.30;;
9520;SDS011;4798;41.574;23.734;2024-01-06T05:05:02;8.67;;;2.70;;
9520;SDS011;4798;41.574;23.734;2024-01-06T05:07:31;4.17;;;3.87;;
9520;SDS011;4798;41.574;23.734;2024-01-06T05:10:00;2.30;;;2.10;;
9520;SDS011;4798;41.574;23.734;2024-01-06T05:12:31;5.70;;;3.30;;
9520;SDS011;4798;41.574;23.734;2024-01-06T05:15:00;2.77;;;2.30;;
9520;SDS011;4798;41.574;23.734;2024-01-06T05:17:30;4.07;;;3.77;;
9520;SDS011;4798;41.574;23.734;2024-01-06T05:19:59;3.53;;;3.03;;
9520;SDS011;4798;41.574;23.734;2024-01-06T05:22:28;4.77;;;4.37;;
9520;SDS011;4798;41.574;23.734;2024-01-06T05:24:56;3.50;;;2.07;;
9520;SDS011;4798;41.574;23.734;2024-01-06T05:27:25;4.20;;;3.17;;
9520;SDS011;4798;41.574;23.734;2024-01-06T05:29:54;6.67;;;3.77;;
9520;SDS011;4798;41.574;23.734;2024-01-06T05:32:23;2.63;;;2.47;;
9520;SDS011;4798;41.574;23.734;2024-01-06T05:34:53;5.80;;;2.37;;
9520;SDS011;4798;41.574;23.734;2024-01-06T05:37:21;3.37;;;3.17;;
9520;SDS011;4798;41.574;23.734;2024-01-06T05:39:50;5.27;;;3.40;;
9520;SDS011;4798;41.574;23.734;2024-01-06T05:42:19;4.20;;;3.90;;
9520;SDS011;4798;41.574;23.734;2024-01-06T05:44:47;13.60;;;4.27;;
9520;SDS011;4798;41.574;23.734;2024-01-06T05:47:17;2.63;;;2.47;;
9520;SDS011;4798;41.574;23.734;2024-01-06T05:49:45;6.00;;;2.43;;
9520;SDS011;4798;41.574;23.734;2024-01-06T05:52:16;2.80;;;2.60;;
9520;SDS011;4798;41.574;23.734;2024-01-06T05:54:45;3.33;;;3.13;;
9520;SDS011;4798;41.574;23.734;2024-01-06T05:57:14;4.17;;;2.90;;
9520;SDS011;4798;41.574;23.734;2024-01-06T05:59:42;6.93;;;4.33;;
9520;SDS011;4798;41.574;23.734;2024-01-06T06:02:11;3.20;;;3.00;;
9520;SDS011;4798;41.574;23.734;2024-01-06T06:04:40;4.87;;;4.50;;
9520;SDS011;4798;41.574;23.734;2024-01-06T06:07:09;4.73;;;4.53;;
9520;SDS011;4798;41.574;23.734;2024-01-06T06:09:39;5.23;;;3.80;;
9520;SDS011;4798;41.574;23.734;2024-01-06T06:12:08;3.13;;;3.03;;
9520;SDS011;4798;41.574;23.734;2024-01-06T06:14:36;6.93;;;5.10;;
9520;SDS011;4798;41.574;23.734;2024-01-06T06:17:05;4.10;;;3.80;;
9520;SDS011;4798;41.574;23.734;2024-01-06T06:19:33;5.10;;;4.70;;
9520;SDS011;4798;41.574;23.734;2024-01-06T06:22:02;5.73;;;5.13;;
9520;SDS011;4798;41.574;23.734;2024-01-06T06:24:31;3.47;;;3.17;;
9520;SDS011;4798;41.574;23.734;2024-01-06T06:27:01;4.53;;;4.33;;
9520;SDS011;4798;41.574;23.734;2024-01-06T06:29:30;10.40;;;5.10;;
9520;SDS011;4798;41.574;23.734;2024-01-06T06:31:58;16.47;;;4.77;;
9520;SDS011;4798;41.574;23.734;2024-01-06T06:34:27;8.80;;;4.20;;
9520;SDS011;4798;41.574;23.734;2024-01-06T06:36:56;6.57;;;6.07;;
9520;SDS011;4798;41.574;23.734;2024-01-06T06:39:25;6.10;;;5.60;;
9520;SDS011;4798;41.574;23.734;2024-01-06T06:41:55;9.97;;;5.30;;
9520;SDS011;4798;41.574;23.734;2024-01-06T06:44:25;7.73;;;4.47;;
9520;SDS011;4798;41.574;23.734;2024-01-06T06:46:53;8.47;;;5.87;;
9520;SDS011;4798;41.574;23.734;2024-01-06T06:49:22;7.90;;;5.63;;
9520;SDS011;4798;41.574;23.734;2024-01-06T06:51:51;5.67;;;5.27;;
9520;SDS011;4798;41.574;23.734;2024-01-06T06:54:20;5.83;;;5.13;;
9520;SDS011;4798;41.574;23.734;2024-01-06T06:56:48;5.97;;;5.50;;
9520;SDS011;4798;41.574;23.734;2024-01-06T06:59:17;5.10;;;4.90;;
9520;SDS011;4798;41.574;23.734;2024-01-06T07:01:47;4.10;;;3.43;;
9520;SDS011;4798;41.574;23.734;2024-01-06T07:04:15;6.87;;;4.37;;
9520;SDS011;4798;41.574;23.734;2024-01-06T07:06:44;10.60;;;4.40;;
9520;SDS011;4798;41.574;23.734;2024-01-06T07:09:12;10.70;;;5.00;;
9520;SDS011;4798;41.574;23.734;2024-01-06T07:11:41;5.97;;;4.90;;
9520;SDS011;4798;41.574;23.734;2024-01-06T07:14:10;10.30;;;9.07;;
9520;SDS011;4798;41.574;23.734;2024-01-06T07:16:39;5.30;;;4.70;;
9520;SDS011;4798;41.574;23.734;2024-01-06T07:19:09;4.67;;;4.27;;
9520;SDS011;4798;41.574;23.734;2024-01-06T07:21:38;8.93;;;7.17;;
9520;SDS011;4798;41.574;23.734;2024-01-06T07:24:06;6.47;;;5.87;;
9520;SDS011;4798;41.574;23.734;2024-01-06T07:26:35;19.33;;;9.97;;
9520;SDS011;4798;41.574;23.734;2024-01-06T07:29:04;20.87;;;10.27;;
9520;SDS011;4798;41.574;23.734;2024-01-06T07:31:33;8.07;;;7.27;;
9520;SDS011;4798;41.574;23.734;2024-01-06T07:34:02;10.37;;;6.27;;
9520;SDS011;4798;41.574;23.734;2024-01-06T07:36:32;13.30;;;7.37;;
9520;SDS011;4798;41.574;23.734;2024-01-06T07:39:01;14.57;;;9.47;;
9520;SDS011;4798;41.574;23.734;2024-01-06T07:41:31;5.77;;;5.33;;
9520;SDS011;4798;41.574;23.734;2024-01-06T07:44:00;6.30;;;5.47;;
9520;SDS011;4798;41.574;23.734;2024-01-06T07:46:29;6.50;;;5.97;;
9520;SDS011;4798;41.574;23.734;2024-01-06T07:48:58;6.60;;;6.10;;
9520;SDS011;4798;41.574;23.734;2024-01-06T07:51:28;7.27;;;6.57;;
9520;SDS011;4798;41.574;23.734;2024-01-06T07:54:00;4.13;;;3.87;;
9520;SDS011;4798;41.574;23.734;2024-01-06T07:56:29;4.03;;;3.83;;
9520;SDS011;4798;41.574;23.734;2024-01-06T07:58:57;7.57;;;2.83;;
9520;SDS011;4798;41.574;23.734;2024-01-06T08:01:26;4.90;;;3.93;;
9520;SDS011;4798;41.574;23.734;2024-01-06T08:03:55;3.97;;;3.50;;
9520;SDS011;4798;41.574;23.734;2024-01-06T08:06:24;6.70;;;5.33;;
9520;SDS011;4798;41.574;23.734;2024-01-06T08:08:53;11.23;;;4.93;;
9520;SDS011;4798;41.574;23.734;2024-01-06T08:11:24;5.67;;;5.33;;
9520;SDS011;4798;41.574;23.734;2024-01-06T08:13:52;4.93;;;4.63;;
9520;SDS011;4798;41.574;23.734;2024-01-06T08:16:21;2.83;;;2.73;;
9520;SDS011;4798;41.574;23.734;2024-01-06T08:18:50;6.27;;;4.33;;
9520;SDS011;4798;41.574;23.734;2024-01-06T08:21:19;5.60;;;5.00;;
9520;SDS011;4798;41.574;23.734;2024-01-06T08:23:47;5.70;;;5.23;;
9520;SDS011;4798;41.574;23.734;2024-01-06T08:26:16;3.83;;;3.60;;
9520;SDS011;4798;41.574;23.734;2024-01-06T08:28:46;7.20;;;3.50;;
9520;SDS011;4798;41.574;23.734;2024-01-06T08:31:15;5.30;;;4.80;;
9520;SDS011;4798;41.574;23.734;2024-01-06T08:33:44;11.40;;;6.70;;
9520;SDS011;4798;41.574;23.734;2024-01-06T08:36:13;6.03;;;4.07;;
9520;SDS011;4798;41.574;23.734;2024-01-06T08:38:42;3.47;;;3.27;;
9520;SDS011;4798;41.574;23.734;2024-01-06T08:41:11;3.53;;;3.33;;
9520;SDS011;4798;41.574;23.734;2024-01-06T08:43:39;5.30;;;2.43;;
9520;SDS011;4798;41.574;23.734;2024-01-06T08:46:09;7.23;;;3.40;;
9520;SDS011;4798;41.574;23.734;2024-01-06T08:48:38;6.50;;;5.97;;
9520;SDS011;4798;41.574;23.734;2024-01-06T08:51:07;5.67;;;5.37;;
9520;SDS011;4798;41.574;23.734;2024-01-06T08:53:36;5.80;;;4.37;;
9520;SDS011;4798;41.574;23.734;2024-01-06T08:56:05;13.93;;;7.67;;
9520;SDS011;4798;41.574;23.734;2024-01-06T08:58:34;4.80;;;4.40;;
9520;SDS011;4798;41.574;23.734;2024-01-06T09:01:03;6.77;;;6.27;;
9520;SDS011;4798;41.574;23.734;2024-01-06T09:03:33;6.37;;;5.83;;
9520;SDS011;4798;41.574;23.734;2024-01-06T09:06:02;6.37;;;3.70;;
9520;SDS011;4798;41.574;23.734;2024-01-06T09:08:31;4.37;;;2.93;;
9520;SDS011;4798;41.574;23.734;2024-01-06T09:11:00;4.87;;;4.57;;
9520;SDS011;4798;41.574;23.734;2024-01-06T09:13:29;8.63;;;7.63;;
9520;SDS011;4798;41.574;23.734;2024-01-06T09:15:58;4.00;;;3.80;;
9520;SDS011;4798;41.574;23.734;2024-01-06T09:18:29;2.83;;;2.63;;
9520;SDS011;4798;41.574;23.734;2024-01-06T09:21:00;4.37;;;4.03;;
9520;SDS011;4798;41.574;23.734;2024-01-06T09:23:29;4.10;;;3.67;;
9520;SDS011;4798;41.574;23.734;2024-01-06T09:25:58;5.37;;;3.80;;
9520;SDS011;4798;41.574;23.734;2024-01-06T09:28:27;7.00;;;4.00;;
9520;SDS011;4798;41.574;23.734;2024-01-06T09:30:55;4.17;;;3.97;;
9520;SDS011;4798;41.574;23.734;2024-01-06T09:33:24;4.57;;;4.37;;
9520;SDS011;4798;41.574;23.734;2024-01-06T09:35:53;7.60;;;5.10;;
9520;SDS011;4798;41.574;23.734;2024-01-06T09:38:26;6.63;;;6.17;;
9520;SDS011;4798;41.574;23.734;2024-01-06T09:40:55;5.80;;;5.23;;
9520;SDS011;4798;41.574;23.734;2024-01-06T09:43:25;3.83;;;3.63;;
9520;SDS011;4798;41.574;23.734;2024-01-06T09:45:58;7.50;;;3.70;;
9520;SDS011;4798;41.574;23.734;2024-01-06T09:48:34;3.33;;;3.03;;
9520;SDS011;4798;41.574;23.734;2024-01-06T09:51:09;6.90;;;6.27;;
9520;SDS011;4798;41.574;23.734;2024-01-06T09:53:42;7.10;;;5.90;;
9520;SDS011;4798;41.574;23.734;2024-01-06T09:56:20;6.20;;;3.80;;
9520;SDS011;4798;41.574;23.734;2024-01-06T09:58:49;6.43;;;4.37;;
9520;SDS011;4798;41.574;23.734;2024-01-06T10:01:18;10.87;;;4.23;;
9520;SDS011;4798;41.574;23.734;2024-01-06T10:03:47;7.93;;;4.90;;
9520;SDS011;4798;41.574;23.734;2024-01-06T10:06:17;3.37;;;3.17;;
9520;SDS011;4798;41.574;23.734;2024-01-06T10:08:49;4.10;;;3.80;;
9520;SDS011;4798;41.574;23.734;2024-01-06T10:11:19;5.80;;;4.90;;
9520;SDS011;4798;41.574;23.734;2024-01-06T10:13:50;6.67;;;6.03;;
9520;SDS011;4798;41.574;23.734;2024-01-06T10:16:19;7.30;;;4.83;;
9520;SDS011;4798;41.574;23.734;2024-01-06T10:18:47;2.83;;;2.57;;
9520;SDS011;4798;41.574;23.734;2024-01-06T10:21:20;3.00;;;2.83;;
9520;SDS011;4798;41.574;23.734;2024-01-06T10:23:51;2.53;;;2.33;;
9520;SDS011;4798;41.574;23.734;2024-01-06T10:26:22;3.20;;;3.10;;
9520;SDS011;4798;41.574;23.734;2024-01-06T10:28:50;4.00;;;3.40;;
9520;SDS011;4798;41.574;23.734;2024-01-06T10:31:19;2.40;;;2.30;;
9520;SDS011;4798;41.574;23.734;2024-01-06T10:33:48;4.93;;;4.40;;
9520;SDS011;4798;41.574;23.734;2024-01-06T10:36:16;3.60;;;3.40;;
9520;SDS011;4798;41.574;23.734;2024-01-06T10:38:45;5.97;;;2.50;;
9520;SDS011;4798;41.574;23.734;2024-01-06T10:41:15;9.70;;;2.37;;
9520;SDS011;4798;41.574;23.734;2024-01-06T10:43:45;10.43;;;2.30;;
9520;SDS011;4798;41.574;23.734;2024-01-06T10:46:15;3.97;;;3.67;;
9520;SDS011;4798;41.574;23.734;2024-01-06T10:48:46;5.33;;;4.80;;
9520;SDS011;4798;41.574;23.734;2024-01-06T10:51:17;4.87;;;3.17;;
9520;SDS011;4798;41.574;23.734;2024-01-06T10:53:47;3.67;;;3.37;;
9520;SDS011;4798;41.574;23.734;2024-01-06T10:56:20;13.43;;;4.13;;
9520;SDS011;4798;41.574;23.734;2024-01-06T10:58:50;3.73;;;3.53;;
9520;SDS011;4798;41.574;23.734;2024-01-06T11:01:21;2.50;;;2.40;;
9520;SDS011;4798;41.574;23.734;2024-01-06T11:03:55;3.40;;;2.53;;
9520;SDS011;4798;41.574;23.734;2024-01-06T11:06:25;2.90;;;2.60;;
9520;SDS011;4798;41.574;23.734;2024-01-06T11:08:57;8.03;;;1.80;;
9520;SDS011;4798;41.574;23.734;2024-01-06T11:11:31;2.80;;;1.63;;
9520;SDS011;4798;41.574;23.734;2024-01-06T11:14:19;1.77;;;1.60;;
9520;SDS011;4798;41.574;23.734;2024-01-06T11:16:49;2.73;;;2.53;;
9520;SDS011;4798;41.574;23.734;2024-01-06T11:22:26;1.53;;;0.83;;
9520;SDS011;4798;41.574;23.734;2024-01-06T11:25:03;2.37;;;2.27;;
9520;SDS011;4798;41.574;23.734;2024-01-06T11:27:36;7.87;;;2.20;;
9520;SDS011;4798;41.574;23.734;2024-01-06T11:30:05;1.53;;;1.43;;
9520;SDS011;4798;41.574;23.734;2024-01-06T11:32:35;6.20;;;3.67;;
9520;SDS011;4798;41.574;23.734;2024-01-06T11:35:08;1.97;;;1.87;;
9520;SDS011;4798;41.574;23.734;2024-01-06T11:37:51;3.93;;;3.73;;
9520;SDS011;4798;41.574;23.734;2024-01-06T11:40:22;5.70;;;2.70;;
9520;SDS011;4798;41.574;23.734;2024-01-06T11:42:58;5.00;;;4.60;;
9520;SDS011;4798;41.574;23.734;2024-01-06T11:45:29;3.03;;;2.83;;
9520;SDS011;4798;41.574;23.734;2024-01-06T11:47:59;4.80;;;1.70;;
9520;SDS011;4798;41.574;23.734;2024-01-06T11:50:30;5.90;;;2.00;;
9520;SDS011;4798;41.574;23.734;2024-01-06T11:53:01;10.53;;;2.97;;
9520;SDS011;4798;41.574;23.734;2024-01-06T11:58:19;2.20;;;2.10;;
9520;SDS011;4798;41.574;23.734;2024-01-06T12:00:54;1.83;;;1.73;;
9520;SDS011;4798;41.574;23.734;2024-01-06T12:03:25;2.30;;;2.20;;
9520;SDS011;4798;41.574;23.734;2024-01-06T12:05:59;1.43;;;1.33;;
9520;SDS011;4798;41.574;23.734;2024-01-06T12:08:28;0.97;;;0.97;;
9520;SDS011;4798;41.574;23.734;2024-01-06T12:11:03;5.30;;;2.60;;
9520;SDS011;4798;41.574;23.734;2024-01-06T12:13:35;3.03;;;2.40;;
9520;SDS011;4798;41.574;23.734;2024-01-06T12:16:04;3.17;;;2.17;;
9520;SDS011;4798;41.574;23.734;2024-01-06T12:18:33;2.30;;;2.20;;
9520;SDS011;4798;41.574;23.734;2024-01-06T12:21:02;8.93;;;3.63;;
9520;SDS011;4798;41.574;23.734;2024-01-06T12:23:31;9.83;;;2.90;;
9520;SDS011;4798;41.574;23.734;2024-01-06T12:26:00;3.67;;;3.47;;
9520;SDS011;4798;41.574;23.734;2024-01-06T12:28:29;3.80;;;3.60;;
9520;SDS011;4798;41.574;23.734;2024-01-06T12:30:59;1.70;;;1.60;;
9520;SDS011;4798;41.574;23.734;2024-01-06T12:33:28;3.90;;;3.60;;
9520;SDS011;4798;41.574;23.734;2024-01-06T12:35:56;7.77;;;2.73;;
9520;SDS011;4798;41.574;23.734;2024-01-06T12:38:35;4.70;;;4.37;;
9520;SDS011;4798;41.574;23.734;2024-01-06T12:41:04;3.30;;;3.10;;
9520;SDS011;4798;41.574;23.734;2024-01-06T12:43:33;11.63;;;2.20;;
9520;SDS011;4798;41.574;23.734;2024-01-06T12:46:06;6.37;;;3.50;;
9520;SDS011;4798;41.574;23.734;2024-01-06T12:48:35;3.47;;;3.17;;
9520;SDS011;4798;41.574;23.734;2024-01-06T12:51:04;3.60;;;3.30;;
9520;SDS011;4798;41.574;23.734;2024-01-06T12:53:33;5.40;;;3.47;;
9520;SDS011;4798;41.574;23.734;2024-01-06T12:56:02;4.77;;;4.37;;
9520;SDS011;4798;41.574;23.734;2024-01-06T12:58:31;6.73;;;3.20;;
9520;SDS011;4798;41.574;23.734;2024-01-06T13:01:00;5.17;;;4.17;;
9520;SDS011;4798;41.574;23.734;2024-01-06T13:03:31;5.47;;;4.93;;
9520;SDS011;4798;41.574;23.734;2024-01-06T13:06:05;4.20;;;3.97;;
9520;SDS011;4798;41.574;23.734;2024-01-06T13:08:36;4.20;;;3.80;;
9520;SDS011;4798;41.574;23.734;2024-01-06T13:11:05;6.30;;;5.80;;
9520;SDS011;4798;41.574;23.734;2024-01-06T13:13:34;5.70;;;5.23;;
9520;SDS011;4798;41.574;23.734;2024-01-06T13:16:03;7.07;;;3.33;;
9520;SDS011;4798;41.574;23.734;2024-01-06T13:18:34;14.40;;;7.13;;
9520;SDS011;4798;41.574;23.734;2024-01-06T13:21:03;6.97;;;5.73;;
9520;SDS011;4798;41.574;23.734;2024-01-06T13:23:32;8.67;;;4.50;;
9520;SDS011;4798;41.574;23.734;2024-01-06T13:26:01;5.00;;;4.57;;
9520;SDS011;4798;41.574;23.734;2024-01-06T13:28:30;5.93;;;3.73;;
9520;SDS011;4798;41.574;23.734;2024-01-06T13:30:58;4.50;;;4.30;;
9520;SDS011;4798;41.574;23.734;2024-01-06T13:33:27;2.10;;;2.00;;
9520;SDS011;4798;41.574;23.734;2024-01-06T13:35:58;2.10;;;1.90;;
9520;SDS011;4798;41.574;23.734;2024-01-06T13:38:27;4.43;;;1.93;;
9520;SDS011;4798;41.574;23.734;2024-01-06T13:40:55;1.93;;;1.83;;
9520;SDS011;4798;41.574;23.734;2024-01-06T13:43:24;15.43;;;3.30;;
9520;SDS011;4798;41.574;23.734;2024-01-06T13:45:52;2.93;;;2.50;;
9520;SDS011;4798;41.574;23.734;2024-01-06T13:48:21;3.23;;;2.10;;
9520;SDS011;4798;41.574;23.734;2024-01-06T13:50:50;2.60;;;1.10;;
9520;SDS011;4798;41.574;23.734;2024-01-06T13:53:20;4.87;;;4.43;;
9520;SDS011;4798;41.574;23.734;2024-01-06T13:55:49;2.00;;;1.90;;
9520;SDS011;4798;41.574;23.734;2024-01-06T13:58:18;2.90;;;2.80;;
9520;SDS011;4798;41.574;23.734;2024-01-06T14:00:46;2.47;;;2.27;;
9520;SDS011;4798;41.574;23.734;2024-01-06T14:03:15;3.87;;;3.20;;
9520;SDS011;4798;41.574;23.734;2024-01-06T14:05:44;8.93;;;5.50;;
9520;SDS011;4798;41.574;23.734;2024-01-06T14:08:13;4.83;;;4.47;;
9520;SDS011;4798;41.574;23.734;2024-01-06T14:10:43;3.83;;;3.53;;
9520;SDS011;4798;41.574;23.734;2024-01-06T14:13:12;6.13;;;4.10;;
9520;SDS011;4798;41.574;23.734;2024-01-06T14:15:41;6.33;;;5.77;;
9520;SDS011;4798;41.574;23.734;2024-01-06T14:18:10;6.73;;;3.70;;
9520;SDS011;4798;41.574;23.734;2024-01-06T14:20:41;4.23;;;3.97;;
9520;SDS011;4798;41.574;23.734;2024-01-06T14:23:10;9.90;;;4.90;;
9520;SDS011;4798;41.574;23.734;2024-01-06T14:25:39;4.80;;;3.20;;
9520;SDS011;4798;41.574;23.734;2024-01-06T14:28:09;4.10;;;3.70;;
9520;SDS011;4798;41.574;23.734;2024-01-06T14:30:38;12.53;;;3.70;;
9520;SDS011;4798;41.574;23.734;2024-01-06T14:33:07;4.10;;;3.30;;
9520;SDS011;4798;41.574;23.734;2024-01-06T14:35:36;14.50;;;4.80;;
9520;SDS011;4798;41.574;23.734;2024-01-06T14:38:04;9.10;;;6.67;;
9520;SDS011;4798;41.574;23.734;2024-01-06T14:40:33;7.07;;;4.40;;
9520;SDS011;4798;41.574;23.734;2024-01-06T14:43:02;6.30;;;5.30;;
9520;SDS011;4798;41.574;23.734;2024-01-06T14:45:32;5.77;;;5.47;;
9520;SDS011;4798;41.574;23.734;2024-01-06T14:48:01;13.27;;;4.13;;
9520;SDS011;4798;41.574;23.734;2024-01-06T14:50:30;4.97;;;3.00;;
9520;SDS011;4798;41.574;23.734;2024-01-06T14:52:59;3.67;;;3.40;;
9520;SDS011;4798;41.574;23.734;2024-01-06T14:55:27;14.63;;;3.60;;
9520;SDS011;4798;41.574;23.734;2024-01-06T14:57:56;4.87;;;3.90;;
9520;SDS011;4798;41.574;23.734;2024-01-06T15:00:25;3.90;;;3.60;;
9520;SDS011;4798;41.574;23.734;2024-01-06T15:02:55;3.73;;;3.07;;
9520;SDS011;4798;41.574;23.734;2024-01-06T15:05:24;3.43;;;3.13;;
9520;SDS011;4798;41.574;23.734;2024-01-06T15:07:55;3.70;;;3.50;;
9520;SDS011;4798;41.574;23.734;2024-01-06T15:10:24;10.53;;;5.83;;
9520;SDS011;4798;41.574;23.734;2024-01-06T15:12:53;6.90;;;5.07;;
9520;SDS011;4798;41.574;23.734;2024-01-06T15:15:21;4.93;;;4.47;;
9520;SDS011;4798;41.574;23.734;2024-01-06T15:17:50;17.93;;;7.70;;
9520;SDS011;4798;41.574;23.734;2024-01-06T15:20:20;11.37;;;7.63;;